Time;durP1;ratioP1;P1;durP2;ratioP2;P2;SDS_P1;SDS_P2;PMS_P1;PMS_P2;Temp;Humidity;BMP_temperature;BMP_pressure;BME280_temperature;BME280_humidity;BME280_pressure;Samples;Min_cycle;Max_cycle;Signal;HPM_P1;HPM_P2
2024/01/20 00:01:32;;;;;;;40.47;18.23;;;;;;;-1.19;100.00;102540.81;5010225;28;20137;-71
2024/01/20 00:03:58;;;;;;;43.50;19.60;;;;;;;-1.21;100.00;102548.63;5010827;28;20493;-71
2024/01/20 00:06:25;;;;;;;33.77;15.87;;;;;;;-1.11;100.00;102546.16;5010429;28;20088;-72
2024/01/20 00:08:51;;;;;;;35.40;17.03;;;;;;;-1.10;100.00;102553.13;5010996;28;20022;-72
2024/01/20 00:11:17;;;;;;;45.50;18.67;;;;;;;-1.20;100.00;102539.09;5008814;28;20045;-71
2024/01/20 00:13:42;;;;;;;37.20;15.63;;;;;;;-1.05;100.00;102548.84;5010825;28;20389;-71
2024/01/20 00:16:10;;;;;;;37.93;16.93;;;;;;;-1.13;100.00;102547.84;5010939;28;20022;-71
2024/01/20 00:18:35;;;;;;;32.97;15.63;;;;;;;-1.11;100.00;102554.00;5008623;28;20065;-71
2024/01/20 00:21:01;;;;;;;37.93;17.17;;;;;;;-0.88;100.00;102555.16;5009027;28;20121;-71
2024/01/20 00:23:26;;;;;;;41.47;17.83;;;;;;;-1.09;100.00;102562.69;5010585;28;20069;-71
2024/01/20 00:25:52;;;;;;;42.50;18.57;;;;;;;-1.16;100.00;102551.31;5009051;28;20081;-71
2024/01/20 00:28:20;;;;;;;39.57;18.40;;;;;;;-1.08;100.00;102561.84;5010447;28;20038;-71
2024/01/20 00:30:45;;;;;;;29.50;14.43;;;;;;;-1.13;100.00;102550.47;5014829;28;20045;-71
2024/01/20 00:33:11;;;;;;;42.50;17.83;;;;;;;-1.22;100.00;102546.88;5014405;28;20109;-71
2024/01/20 00:35:36;;;;;;;46.73;18.33;;;;;;;-1.18;100.00;102546.09;5014286;28;20021;-71
2024/01/20 00:38:03;;;;;;;42.37;19.20;;;;;;;-1.07;100.00;102556.63;5014294;28;20118;-71
2024/01/20 00:40:28;;;;;;;36.87;15.20;;;;;;;-1.09;100.00;102550.50;5013994;28;20447;-71
2024/01/20 00:42:54;;;;;;;40.37;16.97;;;;;;;-1.16;100.00;102548.69;5014444;28;20105;-71
2024/01/20 00:45:20;;;;;;;27.33;14.70;;;;;;;-1.18;100.00;102539.94;5013084;28;20117;-71
2024/01/20 00:47:45;;;;;;;42.90;18.67;;;;;;;-1.21;100.00;102548.63;5014604;28;20018;-71
2024/01/20 00:50:11;;;;;;;40.47;16.73;;;;;;;-1.18;100.00;102550.41;5013890;28;20024;-72
2024/01/20 00:52:38;;;;;;;43.63;17.10;;;;;;;-1.10;100.00;102548.75;5014640;28;20018;-71
2024/01/20 00:55:04;;;;;;;33.03;17.13;;;;;;;-1.19;100.00;102546.91;5014333;28;20117;-71
2024/01/20 00:57:29;;;;;;;29.90;15.03;;;;;;;-1.19;100.00;102543.44;5010796;28;20096;-72
2024/01/20 00:59:56;;;;;;;42.97;17.53;;;;;;;-1.17;100.00;102552.16;5014051;28;20392;-72
2024/01/20 01:02:24;;;;;;;42.70;17.57;;;;;;;-1.18;100.00;102545.19;5008172;28;20552;-71
2024/01/20 01:04:49;;;;;;;36.97;17.53;;;;;;;-1.06;100.00;102550.59;5004001;28;20038;-72
2024/01/20 01:07:17;;;;;;;39.50;17.80;;;;;;;-1.06;100.00;102542.75;5009514;28;20029;-71
2024/01/20 01:09:42;;;;;;;35.93;16.60;;;;;;;-1.17;100.00;102554.78;5009592;28;20477;-71
2024/01/20 01:12:08;;;;;;;40.50;18.77;;;;;;;-1.17;100.00;102542.59;5002518;28;20084;-71
2024/01/20 01:14:33;;;;;;;40.93;18.17;;;;;;;-1.20;100.00;102549.53;5004830;28;20497;-71
2024/01/20 01:16:59;;;;;;;37.53;18.00;;;;;;;-1.28;100.00;102533.75;5004037;28;20030;-72
2024/01/20 01:19:25;;;;;;;27.53;13.23;;;;;;;-1.18;100.00;102547.78;5005165;28;20030;-71
2024/01/20 01:21:50;;;;;;;33.27;15.93;;;;;;;-1.24;100.00;102543.34;5002116;28;20437;-71
2024/01/20 01:24:15;;;;;;;39.77;17.57;;;;;;;-1.21;100.00;102550.34;5006811;28;20105;-72
2024/01/20 01:26:41;;;;;;;31.77;16.03;;;;;;;-1.19;100.00;102546.91;5000901;28;20141;-72
2024/01/20 01:29:06;;;;;;;41.27;17.67;;;;;;;-1.21;100.00;102548.63;5010139;28;20041;-71
2024/01/20 01:31:32;;;;;;;47.63;18.23;;;;;;;-1.21;100.00;102552.97;5013179;28;20388;-71
2024/01/20 01:33:57;;;;;;;28.23;14.57;;;;;;;-1.15;100.00;102559.16;5007885;28;20068;-71
2024/01/20 01:36:25;;;;;;;36.40;18.13;;;;;;;-1.23;100.00;102554.69;5008913;28;20021;-71
2024/01/20 01:38:50;;;;;;;36.53;17.37;;;;;;;-1.28;100.00;102552.03;5011148;28;20025;-71
2024/01/20 01:41:16;;;;;;;37.27;16.77;;;;;;;-1.29;100.00;102552.00;5011828;28;20061;-72
2024/01/20 01:43:41;;;;;;;36.03;16.63;;;;;;;-1.25;100.00;102556.41;5012503;28;20022;-71
2024/01/20 01:46:07;;;;;;;30.90;14.43;;;;;;;-1.11;100.00;102554.00;5011965;28;20455;-71
2024/01/20 01:48:35;;;;;;;39.13;18.47;;;;;;;-1.42;100.00;102537.91;5013262;28;20030;-72
2024/01/20 01:51:03;;;;;;;37.43;17.57;;;;;;;-1.20;100.00;102565.19;5013604;28;20025;-71
2024/01/20 01:53:32;;;;;;;37.00;17.33;;;;;;;-1.26;100.00;102570.31;5013506;28;20072;-72
2024/01/20 01:56:03;;;;;;;35.67;15.80;;;;;;;-1.27;100.00;102564.19;5012061;28;20050;-71
2024/01/20 01:58:29;;;;;;;34.37;16.60;;;;;;;-1.22;100.00;102583.41;5013055;28;20025;-71
2024/01/20 02:00:54;;;;;;;36.63;16.63;;;;;;;-1.20;100.00;102584.31;5012750;28;20022;-71
2024/01/20 02:03:20;;;;;;;36.63;17.40;;;;;;;-1.28;100.00;102583.34;5013274;28;20363;-72
2024/01/20 02:05:45;;;;;;;36.00;17.83;;;;;;;-1.24;100.00;102584.25;5012790;28;20465;-71
2024/01/20 02:08:11;;;;;;;35.87;15.90;;;;;;;-1.26;100.00;102594.69;5015818;28;20061;-72
2024/01/20 02:10:40;;;;;;;37.60;17.53;;;;;;;-1.19;100.00;102586.06;5011339;28;20022;-71
2024/01/20 02:13:06;;;;;;;37.83;17.60;;;;;;;-1.45;100.00;102546.56;5014902;28;20450;-72
2024/01/20 02:15:33;;;;;;;42.93;18.93;;;;;;;-1.23;100.00;102588.63;5012334;28;20113;-71
2024/01/20 02:18:01;;;;;;;37.20;15.53;;;;;;;-1.18;100.00;102579.09;5013055;28;20026;-71
2024/01/20 02:20:26;;;;;;;37.13;16.13;;;;;;;-1.22;100.00;102600.81;5012741;28;20022;-71
2024/01/20 02:22:52;;;;;;;35.53;17.60;;;;;;;-1.26;100.00;102593.81;5011298;28;20095;-71
2024/01/20 02:25:17;;;;;;;38.50;16.07;;;;;;;-1.24;100.00;102594.69;5010509;28;20033;-70
2024/01/20 02:27:43;;;;;;;40.83;16.23;;;;;;;-1.31;100.00;102590.25;5012408;28;20026;-71
2024/01/20 02:30:09;;;;;;;35.20;17.53;;;;;;;-1.25;100.00;102598.16;5010947;28;20033;-71
2024/01/20 02:32:34;;;;;;;38.33;17.90;;;;;;;-1.24;100.00;102600.78;5012436;28;20021;-72
2024/01/20 02:35:00;;;;;;;18.13;10.60;;;;;;;-1.27;100.00;102594.66;5010979;28;20178;-72
2024/01/20 02:37:25;;;;;;;33.40;16.63;;;;;;;-1.27;100.00;102608.56;5012267;28;20030;-71
2024/01/20 02:39:51;;;;;;;31.33;14.40;;;;;;;-1.12;100.00;102609.66;5011493;28;20481;-72
2024/01/20 02:42:16;;;;;;;29.70;17.20;;;;;;;-1.13;100.00;102608.78;5011761;28;20021;-72
2024/01/20 02:44:46;;;;;;;39.43;16.80;;;;;;;-1.30;100.00;102605.03;5011792;28;20022;-71
2024/01/20 02:47:12;;;;;;;39.55;16.70;;;;;;;-1.24;100.00;102592.09;5009933;28;20057;-72
2024/01/20 02:49:37;;;;;;;40.33;16.40;;;;;;;-1.35;100.00;102585.81;5010727;28;20076;-71
2024/01/20 02:52:03;;;;;;;36.67;16.53;;;;;;;-1.28;100.00;102595.50;5011752;28;20034;-71
2024/01/20 02:54:28;;;;;;;34.20;16.77;;;;;;;-1.27;100.00;102603.34;5010908;28;20404;-72
2024/01/20 02:56:53;;;;;;;43.67;17.70;;;;;;;-1.32;100.00;102597.22;5010895;28;20060;-71
2024/01/20 02:59:19;;;;;;;35.87;17.03;;;;;;;-1.29;100.00;102585.94;5011942;28;20054;-71
2024/01/20 03:01:44;;;;;;;39.87;17.17;;;;;;;-1.27;100.00;102599.88;5012050;28;20083;-72
2024/01/20 03:04:10;;;;;;;34.87;17.67;;;;;;;-1.26;100.00;102602.50;5010596;28;20100;-71
2024/01/20 03:06:35;;;;;;;35.67;16.87;;;;;;;-1.25;100.00;102609.47;5010539;28;20113;-71
2024/01/20 03:09:00;;;;;;;37.10;17.47;;;;;;;-1.23;100.00;102606.91;5012053;28;20029;-71
2024/01/20 03:11:26;;;;;;;37.50;17.40;;;;;;;-1.24;100.00;102616.44;5011603;28;20024;-72
2024/01/20 03:13:51;;;;;;;40.93;17.53;;;;;;;-1.18;100.00;102615.66;5010515;28;20029;-72
2024/01/20 03:16:17;;;;;;;39.27;17.43;;;;;;;-1.25;100.00;102617.31;5011806;28;20033;-71
2024/01/20 03:18:42;;;;;;;37.93;17.43;;;;;;;-1.26;100.00;102615.56;5011567;28;20036;-71
2024/01/20 03:21:08;;;;;;;21.47;12.30;;;;;;;-1.13;100.00;102610.50;5011604;28;20064;-72
2024/01/20 03:23:36;;;;;;;25.67;15.23;;;;;;;-1.15;100.00;102623.53;5011117;28;20473;-71
2024/01/20 03:26:09;;;;;;;33.97;16.40;;;;;;;-1.30;100.00;102616.34;5010794;28;20049;-71
2024/01/20 03:28:34;;;;;;;36.50;17.33;;;;;;;-1.26;100.00;102626.00;5009004;28;20076;-71
2024/01/20 03:31:00;;;;;;;36.97;17.10;;;;;;;-1.16;100.00;102627.00;5011367;28;20057;-71
2024/01/20 03:33:26;;;;;;;38.90;17.63;;;;;;;-1.21;100.00;102621.72;5010480;28;20026;-71
2024/01/20 03:35:53;;;;;;;34.20;16.77;;;;;;;-1.17;100.00;102633.09;5011150;28;20473;-71
2024/01/20 03:38:19;;;;;;;40.20;16.33;;;;;;;-1.25;100.00;102614.69;5011508;28;20029;-71
2024/01/20 03:40:45;;;;;;;30.77;14.93;;;;;;;-1.19;100.00;102614.78;5009510;28;20381;-71
2024/01/20 03:43:11;;;;;;;29.93;15.73;;;;;;;-1.23;100.00;102615.59;5011097;28;20056;-72
2024/01/20 03:45:43;;;;;;;33.03;15.70;;;;;;;-1.19;100.00;102620.00;5010033;28;20523;-71
2024/01/20 03:48:08;;;;;;;20.17;12.33;;;;;;;-1.44;100.00;102582.25;5010989;28;20045;-71
2024/01/20 03:50:34;;;;;;;39.43;15.67;;;;;;;-1.23;100.00;102615.59;5010790;28;20014;-71
2024/01/20 03:52:59;;;;;;;38.50;16.63;;;;;;;-1.23;100.00;102630.41;5011367;28;20835;-71
2024/01/20 03:55:25;;;;;;;32.60;14.57;;;;;;;-1.25;100.00;102616.44;5009729;28;20554;-71
2024/01/20 03:57:50;;;;;;;37.90;15.80;;;;;;;-1.23;100.00;102623.44;5010528;28;20485;-71
2024/01/20 04:00:16;;;;;;;36.00;16.13;;;;;;;-1.24;100.00;102621.66;5010931;28;20034;-72
2024/01/20 04:02:42;;;;;;;40.30;17.57;;;;;;;-1.24;100.00;102624.28;5009891;28;20036;-71
2024/01/20 04:05:07;;;;;;;38.43;17.63;;;;;;;-1.22;100.00;102621.69;5010015;28;20374;-72
2024/01/20 04:07:33;;;;;;;42.83;19.13;;;;;;;-1.26;100.00;102631.22;5010887;28;20164;-71
2024/01/20 04:10:00;;;;;;;32.73;16.67;;;;;;;-1.22;100.00;102629.53;5011236;28;20034;-71
2024/01/20 04:12:26;;;;;;;30.07;16.00;;;;;;;-1.27;100.00;102612.91;5008852;28;20397;-71
2024/01/20 04:14:51;;;;;;;30.47;15.73;;;;;;;-1.22;100.00;102621.69;5009743;28;20030;-71
2024/01/20 04:17:17;;;;;;;32.03;17.40;;;;;;;-1.29;100.00;102605.09;5010876;28;20148;-71
2024/01/20 04:19:42;;;;;;;23.80;12.27;;;;;;;-1.13;100.00;102620.97;5010259;28;20045;-72
2024/01/20 04:22:07;;;;;;;33.70;15.00;;;;;;;-1.25;100.00;102632.97;5010247;28;20431;-71
2024/01/20 04:24:33;;;;;;;32.00;15.47;;;;;;;-1.25;100.00;102632.97;5010280;28;20034;-72
2024/01/20 04:26:58;;;;;;;30.73;15.33;;;;;;;-1.28;100.00;102639.88;5008099;28;20049;-72
2024/01/20 04:29:26;;;;;;;36.40;15.80;;;;;;;-1.39;100.00;102630.16;5010782;28;20037;-71
2024/01/20 04:31:51;;;;;;;43.57;16.93;;;;;;;-1.26;100.00;102639.06;5010443;28;20022;-71
2024/01/20 04:34:16;;;;;;;28.73;15.53;;;;;;;-1.29;100.00;102641.63;5009474;28;20029;-71
2024/01/20 04:36:42;;;;;;;36.07;16.57;;;;;;;-1.25;100.00;102653.84;5009256;28;20034;-71
2024/01/20 04:39:07;;;;;;;34.10;16.67;;;;;;;-1.29;100.00;102653.81;5001568;28;20026;-71
2024/01/20 04:41:33;;;;;;;28.03;14.17;;;;;;;-1.25;100.00;102655.59;5001517;28;20084;-71
2024/01/20 04:43:58;;;;;;;21.03;11.43;;;;;;;-1.15;100.00;102658.38;4999466;28;20029;-71
2024/01/20 04:46:23;;;;;;;35.40;16.87;;;;;;;-1.28;100.00;102648.59;4999115;28;20100;-71
2024/01/20 04:48:49;;;;;;;24.50;11.37;;;;;;;-1.16;100.00;102650.50;4998085;28;20029;-72
2024/01/20 04:51:14;;;;;;;33.07;18.57;;;;;;;-1.21;100.00;102660.84;4998863;28;20022;-71
2024/01/20 04:53:39;;;;;;;28.27;14.57;;;;;;;-1.10;100.00;102657.53;5004856;28;20473;-72
2024/01/20 04:56:05;;;;;;;32.93;15.67;;;;;;;-1.28;100.00;102656.41;5005716;28;20033;-71
2024/01/20 04:58:31;;;;;;;34.33;15.57;;;;;;;-1.29;100.00;102651.19;5008760;28;20448;-71
2024/01/20 05:00:57;;;;;;;34.77;15.97;;;;;;;-1.26;100.00;102651.25;4998405;28;20442;-71
2024/01/20 05:03:22;;;;;;;27.40;15.53;;;;;;;-1.39;100.00;102637.09;4999831;28;20034;-71
2024/01/20 05:05:47;;;;;;;37.07;16.17;;;;;;;-1.30;100.00;102652.03;5005935;28;20030;-71
2024/01/20 05:08:13;;;;;;;27.57;13.23;;;;;;;-1.39;100.00;102639.72;5010397;28;20040;-71
2024/01/20 05:10:38;;;;;;;33.40;14.73;;;;;;;-1.35;100.00;102648.47;5009368;28;20029;-71
2024/01/20 05:13:04;;;;;;;35.13;15.87;;;;;;;-1.34;100.00;102658.94;5008692;28;20440;-71
2024/01/20 05:15:30;;;;;;;27.63;13.33;;;;;;;-1.22;100.00;102669.56;5011493;28;20025;-71
2024/01/20 05:17:56;;;;;;;25.57;14.23;;;;;;;-1.28;100.00;102655.53;5012965;28;20370;-71
2024/01/20 05:20:21;;;;;;;32.73;15.90;;;;;;;-1.42;100.00;102658.81;5013388;28;20046;-71
2024/01/20 05:22:47;;;;;;;34.30;15.67;;;;;;;-1.43;100.00;102667.50;5013659;28;20026;-72
2024/01/20 05:25:13;;;;;;;29.07;14.60;;;;;;;-1.46;100.00;102659.63;5013442;28;20029;-71
2024/01/20 05:27:38;;;;;;;25.40;14.30;;;;;;;-1.36;100.00;102676.28;5012042;28;20045;-72
2024/01/20 05:30:05;;;;;;;30.43;15.20;;;;;;;-1.41;100.00;102659.72;5013613;28;20121;-71
2024/01/20 05:32:31;;;;;;;19.43;13.13;;;;;;;-1.38;100.00;102667.59;5011402;28;20046;-71
2024/01/20 05:34:57;;;;;;;33.90;17.20;;;;;;;-1.40;100.00;102661.44;5013314;28;20080;-71
2024/01/20 05:37:22;;;;;;;33.50;15.57;;;;;;;-1.34;100.00;102664.16;5013687;28;20073;-71
2024/01/20 05:39:53;;;;;;;26.77;14.73;;;;;;;-1.47;100.00;102655.28;5013363;28;20029;-71
2024/01/20 05:42:21;;;;;;;36.33;16.97;;;;;;;-1.41;100.00;102683.19;5011040;28;20026;-71
2024/01/20 05:44:46;;;;;;;31.40;14.40;;;;;;;-1.36;100.00;102671.06;5013520;28;20026;-71
2024/01/20 05:47:12;;;;;;;34.60;15.30;;;;;;;-1.50;100.00;102656.94;5013683;28;20092;-71
2024/01/20 05:49:37;;;;;;;30.17;16.53;;;;;;;-1.39;100.00;102671.03;5012261;28;20481;-71
2024/01/20 05:52:03;;;;;;;23.60;12.50;;;;;;;-1.39;100.00;102678.84;5012496;28;20026;-71
2024/01/20 05:54:28;;;;;;;32.10;15.00;;;;;;;-1.43;100.00;102670.09;5012217;28;20037;-72
2024/01/20 05:56:54;;;;;;;30.70;15.47;;;;;;;-1.41;100.00;102667.53;5012660;28;20101;-71
2024/01/20 05:59:19;;;;;;;32.23;15.27;;;;;;;-1.41;100.00;102673.63;5013685;28;20048;-71
2024/01/20 06:01:50;;;;;;;23.37;11.97;;;;;;;-1.32;100.00;102688.56;5012413;28;20509;-71
2024/01/20 06:04:19;;;;;;;34.93;16.57;;;;;;;-1.50;100.00;102673.50;5011249;28;20049;-72
2024/01/20 06:06:51;;;;;;;36.40;17.03;;;;;;;-1.35;100.00;102692.81;5010782;28;20052;-71
2024/01/20 06:09:16;;;;;;;30.10;15.13;;;;;;;-1.34;100.00;102678.94;5013144;28;20022;-71
2024/01/20 06:11:41;;;;;;;23.10;14.17;;;;;;;-1.40;100.00;102698.00;5012228;28;20033;-71
2024/01/20 06:14:07;;;;;;;31.07;16.00;;;;;;;-1.54;100.00;102673.41;5012720;28;20038;-71
2024/01/20 06:16:38;;;;;;;43.77;14.87;;;;;;;-1.44;100.00;102697.06;5009708;28;20026;-71
2024/01/20 06:19:05;;;;;;;21.57;11.20;;;;;;;-1.39;100.00;102711.03;5012587;28;20033;-71
2024/01/20 06:21:31;;;;;;;29.53;16.47;;;;;;;-1.45;100.00;102697.03;5012209;28;20034;-72
2024/01/20 06:23:56;;;;;;;34.47;16.20;;;;;;;-1.56;100.00;102678.56;5009595;28;20080;-71
2024/01/20 06:26:22;;;;;;;25.73;15.07;;;;;;;-1.47;100.00;102698.72;5011025;28;20057;-71
2024/01/20 06:28:47;;;;;;;31.23;16.00;;;;;;;-1.54;100.00;102696.88;5012670;28;20109;-72
2024/01/20 06:31:26;;;;;;;23.17;12.23;;;;;;;-1.49;100.00;102705.66;5012773;28;20029;-71
2024/01/20 06:33:52;;;;;;;28.77;14.63;;;;;;;-1.48;100.00;102704.81;5010776;28;20022;-71
2024/01/20 06:36:18;;;;;;;21.87;12.43;;;;;;;-1.45;100.00;102691.81;5011072;28;20037;-72
2024/01/20 06:38:44;;;;;;;24.70;14.50;;;;;;;-1.42;100.00;102707.50;5011164;28;20108;-71
2024/01/20 06:41:09;;;;;;;19.17;11.83;;;;;;;-1.33;100.00;102715.50;5004068;28;20109;-71
2024/01/20 06:43:35;;;;;;;30.87;15.63;;;;;;;-1.48;100.00;102720.47;4997780;28;20018;-71
2024/01/20 06:46:00;;;;;;;26.87;15.53;;;;;;;-1.48;100.00;102716.13;4997365;28;20477;-71
2024/01/20 06:48:26;;;;;;;26.87;14.43;;;;;;;-1.57;100.00;102700.31;5000051;28;20037;-72
2024/01/20 06:50:52;;;;;;;35.00;14.67;;;;;;;-1.45;100.00;102723.13;5003616;28;20797;-72
2024/01/20 06:53:17;;;;;;;19.40;12.20;;;;;;;-1.43;100.00;102719.69;5003741;28;20382;-71
2024/01/20 06:55:43;;;;;;;23.97;12.90;;;;;;;-1.44;100.00;102737.91;4998154;28;20023;-71
2024/01/20 06:58:08;;;;;;;27.87;14.63;;;;;;;-1.52;100.00;102734.31;4997136;28;20121;-72
2024/01/20 07:00:34;;;;;;;31.73;16.27;;;;;;;-1.51;100.00;102731.72;5001729;28;20447;-72
2024/01/20 07:03:02;;;;;;;27.30;14.07;;;;;;;-1.56;100.00;102722.06;4999086;28;20032;-71
2024/01/20 07:05:28;;;;;;;20.17;12.27;;;;;;;-1.49;100.00;102726.53;5001558;28;20032;-71
2024/01/20 07:07:53;;;;;;;23.70;13.37;;;;;;;-1.44;100.00;102744.03;5000340;28;20021;-71
2024/01/20 07:10:21;;;;;;;29.80;15.07;;;;;;;-1.60;100.00;102729.81;5007361;28;20021;-71
2024/01/20 07:12:46;;;;;;;28.77;15.53;;;;;;;-1.41;100.00;102738.88;5004486;28;20433;-72
2024/01/20 07:15:14;;;;;;;30.97;14.23;;;;;;;-1.56;100.00;102738.56;5002600;28;20026;-72
2024/01/20 07:17:40;;;;;;;20.47;12.50;;;;;;;-1.53;100.00;102743.88;5000553;28;20085;-71
2024/01/20 07:20:06;;;;;;;24.43;14.23;;;;;;;-1.54;100.00;102741.22;5005604;28;20037;-71
2024/01/20 07:22:31;;;;;;;27.40;14.83;;;;;;;-1.54;100.00;102734.28;5003673;28;20482;-72
2024/01/20 07:24:57;;;;;;;30.33;15.80;;;;;;;-1.48;100.00;102741.34;5000326;28;20036;-72
2024/01/20 07:27:22;;;;;;;25.93;16.30;;;;;;;-1.62;100.00;102730.66;4996477;28;20050;-72
2024/01/20 07:29:48;;;;;;;27.37;15.47;;;;;;;-1.50;100.00;102738.72;4994271;28;20525;-72
2024/01/20 07:32:13;;;;;;;26.80;13.97;;;;;;;-1.53;100.00;102738.66;5000778;28;20022;-72
2024/01/20 07:34:39;;;;;;;29.93;15.80;;;;;;;-1.52;100.00;102748.22;5005483;28;20099;-68
2024/01/20 07:37:04;;;;;;;25.87;13.93;;;;;;;-1.62;100.00;102713.28;5000570;28;20401;-68
2024/01/20 07:39:32;;;;;;;31.67;16.23;;;;;;;-1.51;100.00;102744.75;4998785;28;20034;-68
2024/01/20 07:41:57;;;;;;;28.07;14.97;;;;;;;-1.60;100.00;102735.03;4999795;28;20026;-68
2024/01/20 07:44:23;;;;;;;36.83;16.10;;;;;;;-1.66;100.00;102742.75;5001622;28;20083;-66
2024/01/20 07:46:49;;;;;;;27.70;14.50;;;;;;;-1.51;100.00;102744.75;4998736;28;20477;-68
2024/01/20 07:49:14;;;;;;;28.00;15.33;;;;;;;-1.48;100.00;102752.63;5002871;28;20040;-68
2024/01/20 07:51:40;;;;;;;28.40;15.93;;;;;;;-1.58;100.00;102747.25;5003109;28;20026;-68
2024/01/20 07:54:05;;;;;;;36.73;16.57;;;;;;;-1.61;100.00;102756.78;5002626;28;20030;-69
2024/01/20 07:56:31;;;;;;;38.30;16.93;;;;;;;-1.62;100.00;102757.63;5001204;28;20085;-68
2024/01/20 07:58:56;;;;;;;32.70;17.37;;;;;;;-1.63;100.00;102757.59;5002121;28;20391;-69
2024/01/20 08:01:21;;;;;;;27.70;15.57;;;;;;;-1.56;100.00;102756.84;5001611;28;20030;-68
2024/01/20 08:03:53;;;;;;;39.53;17.60;;;;;;;-1.60;100.00;102762.88;4998926;28;20549;-68
2024/01/20 08:06:18;;;;;;;33.53;16.17;;;;;;;-1.61;100.00;102755.91;5001548;28;20017;-68
2024/01/20 08:08:44;;;;;;;21.80;13.77;;;;;;;-1.49;100.00;102769.16;5004544;28;20033;-68
2024/01/20 08:11:10;;;;;;;26.10;15.30;;;;;;;-1.62;100.00;102760.25;5005749;28;20380;-67
2024/01/20 08:13:35;;;;;;;34.90;17.57;;;;;;;-1.66;100.00;102750.59;5009511;28;20033;-68
2024/01/20 08:16:01;;;;;;;28.17;14.60;;;;;;;-1.64;100.00;102759.31;5008748;28;20026;-67
2024/01/20 08:18:26;;;;;;;34.07;17.63;;;;;;;-1.63;100.00;102766.28;5009650;28;20056;-67
2024/01/20 08:20:52;;;;;;;35.47;17.43;;;;;;;-1.70;100.00;102750.53;5009376;28;20220;-67
2024/01/20 08:23:17;;;;;;;32.23;18.40;;;;;;;-1.55;100.00;102770.78;5007753;28;20030;-68
2024/01/20 08:25:42;;;;;;;20.50;12.03;;;;;;;-1.58;100.00;102765.53;5009286;28;20076;-68
2024/01/20 08:28:08;;;;;;;31.47;16.03;;;;;;;-2.07;100.00;102706.38;4996079;28;20034;-67
2024/01/20 08:30:33;;;;;;;31.10;16.27;;;;;;;-1.57;100.00;102782.91;5005664;28;20034;-67
2024/01/20 08:32:59;;;;;;;30.07;16.10;;;;;;;-1.57;100.00;102772.47;5009207;28;20087;-68
2024/01/20 08:35:24;;;;;;;29.57;15.67;;;;;;;-1.50;100.00;102775.25;5004420;28;20049;-68
2024/01/20 08:37:49;;;;;;;32.13;15.67;;;;;;;-1.63;100.00;102763.69;5005977;28;20123;-68
2024/01/20 08:40:15;;;;;;;33.87;16.43;;;;;;;-1.51;100.00;102783.03;5009126;28;20453;-68
2024/01/20 08:42:40;;;;;;;37.40;16.37;;;;;;;-1.50;100.00;102777.84;5009726;28;20037;-68
2024/01/20 08:45:06;;;;;;;33.13;16.33;;;;;;;-1.50;100.00;102775.25;5010003;28;20028;-68
2024/01/20 08:47:31;;;;;;;30.80;15.40;;;;;;;-1.49;100.00;102792.66;5008776;28;20053;-67
2024/01/20 08:49:57;;;;;;;29.23;16.70;;;;;;;-1.37;100.00;102789.38;5010889;28;20041;-67
2024/01/20 08:52:22;;;;;;;13.90;10.60;;;;;;;-1.44;100.00;102784.88;5012707;28;20029;-68
2024/01/20 08:54:48;;;;;;;26.43;15.40;;;;;;;-1.56;100.00;102763.78;5012613;28;20457;-68
2024/01/20 08:57:13;;;;;;;30.93;16.43;;;;;;;-1.43;100.00;102790.13;5011894;28;20511;-68
2024/01/20 08:59:39;;;;;;;25.70;14.87;;;;;;;-1.31;100.00;102789.47;5013001;28;20025;-68
2024/01/20 09:02:05;;;;;;;29.07;15.77;;;;;;;-1.32;100.00;102794.66;5012456;28;20033;-68
2024/01/20 09:04:31;;;;;;;29.90;15.47;;;;;;;-1.43;100.00;102786.66;5013587;28;20057;-67
2024/01/20 09:06:56;;;;;;;24.83;14.33;;;;;;;-1.21;100.00;102796.59;5013302;28;20022;-67
2024/01/20 09:09:22;;;;;;;31.93;16.27;;;;;;;-1.40;100.00;102786.72;5013516;28;20109;-68
2024/01/20 09:11:47;;;;;;;27.93;15.23;;;;;;;-1.45;100.00;102794.44;5012093;28;20037;-67
2024/01/20 09:14:15;;;;;;;26.07;15.50;;;;;;;-1.39;100.00;102804.13;5014482;28;20037;-67
2024/01/20 09:16:44;;;;;;;32.17;15.23;;;;;;;-1.40;100.00;102803.25;5013158;28;20029;-67
2024/01/20 09:19:09;;;;;;;29.63;15.57;;;;;;;-1.39;100.00;102805.00;5014393;28;20030;-67
2024/01/20 09:21:34;;;;;;;29.67;17.27;;;;;;;-1.38;100.00;102809.38;4996350;28;20044;-67
2024/01/20 09:24:00;;;;;;;31.73;15.93;;;;;;;-1.30;100.00;102806.88;5014349;28;20083;-68
2024/01/20 09:26:26;;;;;;;26.50;15.93;;;;;;;-1.06;100.00;102814.28;5012215;28;20540;-68
2024/01/20 09:28:51;;;;;;;25.43;15.73;;;;;;;-1.18;100.00;102807.13;5003548;28;20393;-68
2024/01/20 09:31:17;;;;;;;33.40;15.93;;;;;;;-1.46;100.00;102791.81;5011718;28;20022;-69
2024/01/20 09:33:44;;;;;;;25.43;15.03;;;;;;;-1.49;100.00;102795.25;5005624;28;20033;-68
2024/01/20 09:36:09;;;;;;;30.40;16.57;;;;;;;-1.38;100.00;102808.50;5002650;28;20060;-68
2024/01/20 09:38:35;;;;;;;28.87;16.10;;;;;;;-1.37;100.00;102810.25;5009443;28;20034;-68
2024/01/20 09:41:00;;;;;;;30.73;16.40;;;;;;;-1.35;100.00;102808.56;5012180;28;20045;-68
2024/01/20 09:43:28;;;;;;;29.37;14.80;;;;;;;-1.31;100.00;102810.34;5009853;28;20026;-68
2024/01/20 09:45:57;;;;;;;32.30;16.03;;;;;;;-1.44;100.00;102798.84;5004343;28;20026;-68
2024/01/20 09:48:23;;;;;;;36.33;16.47;;;;;;;-1.35;100.00;102815.47;5002499;28;20030;-68
2024/01/20 09:50:49;;;;;;;27.80;15.47;;;;;;;-1.27;100.00;102827.81;5008584;28;20026;-68
2024/01/20 09:53:15;;;;;;;31.03;17.23;;;;;;;-1.26;100.00;102816.53;5012771;28;20397;-68
2024/01/20 09:55:43;;;;;;;29.80;15.10;;;;;;;-1.27;100.00;102833.03;5010096;28;20076;-67
2024/01/20 09:58:12;;;;;;;38.77;17.57;;;;;;;-1.28;100.00;102831.28;5000774;28;20048;-68
2024/01/20 10:00:39;;;;;;;28.42;15.70;;;;;;;-1.24;100.00;102832.22;4994872;28;20026;-68
2024/01/20 10:03:07;;;;;;;32.77;16.43;;;;;;;-1.24;100.00;102829.59;5010380;28;20021;-67
2024/01/20 10:05:34;;;;;;;34.10;15.73;;;;;;;-1.22;100.00;102830.53;5008457;28;20050;-67
2024/01/20 10:08:00;;;;;;;27.07;16.60;;;;;;;-1.19;100.00;102843.63;5011903;28;20025;-68
2024/01/20 10:10:25;;;;;;;27.87;13.97;;;;;;;-1.20;100.00;102829.72;5012011;28;20026;-68
2024/01/20 10:12:53;;;;;;;32.17;16.63;;;;;;;-1.06;100.00;102837.78;5013455;28;20034;-68
2024/01/20 10:15:23;;;;;;;29.33;15.93;;;;;;;-1.06;100.00;102849.94;5012025;28;20017;-68
2024/01/20 10:17:48;;;;;;;24.55;14.70;;;;;;;-1.15;100.00;102828.06;5013330;28;20025;-68
2024/01/20 10:20:21;;;;;;;25.83;14.53;;;;;;;-1.16;100.00;102839.34;5012555;28;20029;-68
2024/01/20 10:22:48;;;;;;;24.43;12.87;;;;;;;-0.99;100.00;102834.41;5011217;28;20056;-68
2024/01/20 10:25:22;;;;;;;22.20;14.20;;;;;;;-1.11;100.00;102847.25;4987281;28;20370;-68
2024/01/20 10:27:52;;;;;;;28.50;15.37;;;;;;;-1.08;100.00;102839.47;5003062;28;20399;-68
2024/01/20 10:30:20;;;;;;;27.17;14.57;;;;;;;-1.03;100.00;102840.44;5008250;28;20037;-66
2024/01/20 10:32:46;;;;;;;29.23;15.27;;;;;;;-0.96;100.00;102830.97;4997318;28;20030;-65
2024/01/20 10:35:14;;;;;;;25.20;14.07;;;;;;;-0.98;100.00;102817.00;5000076;28;20037;-65
2024/01/20 10:37:49;;;;;;;20.30;12.17;;;;;;;-0.87;100.00;102823.28;4999687;28;20022;-66
2024/01/20 10:40:15;;;;;;;22.43;13.10;;;;;;;-0.78;100.00;102815.59;5000134;28;20026;-64
2024/01/20 10:42:47;;;;;;;26.77;14.80;;;;;;;-0.87;100.00;102805.00;5001763;28;20030;-65
2024/01/20 10:45:19;;;;;;;21.63;12.17;;;;;;;-0.61;100.00;102817.59;5004382;28;20029;-66
2024/01/20 10:48:25;;;;;;;27.27;14.03;;;;;;;-0.63;100.00;102817.56;4992866;28;20077;-65
2024/01/20 10:51:11;;;;;;;25.70;14.13;;;;;;;-0.65;100.00;102818.38;5004180;28;20026;-65
2024/01/20 10:53:37;;;;;;;27.63;15.00;;;;;;;-0.63;100.00;102827.16;5008250;28;20502;-64
2024/01/20 10:56:06;;;;;;;27.10;14.53;;;;;;;-0.66;100.00;102827.09;5008332;28;20037;-65
2024/01/20 10:58:35;;;;;;;24.80;13.37;;;;;;;-0.81;100.00;102815.53;5011102;28;20040;-64